createdAt,value
2023-05-21T00:00:12.307Z,18.24
2023-05-21T00:02:39.607Z,17.95
2023-05-21T00:05:06.791Z,18.29
2023-05-21T00:07:33.307Z,18.48
2023-05-21T00:10:00.261Z,18.61
2023-05-21T00:12:26.876Z,18.72
2023-05-21T00:14:53.413Z,18.21
2023-05-21T00:17:19.909Z,18.18
2023-05-21T00:19:46.474Z,18.51
2023-05-21T00:22:14.288Z,18.37
2023-05-21T00:24:40.864Z,18.32
2023-05-21T00:27:07.351Z,18.39
2023-05-21T00:29:33.859Z,18.73
2023-05-21T00:32:00.388Z,18.56
2023-05-21T00:34:27.280Z,18.31
2023-05-21T00:36:55.505Z,18.30
2023-05-21T00:39:22.001Z,17.58
2023-05-21T00:41:48.630Z,18.08
2023-05-21T00:44:16.881Z,18.11
2023-05-21T00:46:44.324Z,18.29
2023-05-21T00:49:11.435Z,18.49
2023-05-21T00:51:37.985Z,18.48
2023-05-21T00:54:04.664Z,18.15
2023-05-21T00:56:31.178Z,18.45
2023-05-21T00:58:58.324Z,18.43
2023-05-21T01:01:34.023Z,18.08
2023-05-21T01:04:01.773Z,17.81
2023-05-21T01:06:34.680Z,17.94
2023-05-21T01:09:05.197Z,18.23
2023-05-21T01:11:44.027Z,18.21
2023-05-21T01:14:12.704Z,17.92
2023-05-21T01:16:41.094Z,17.99
2023-05-21T01:19:10.314Z,18.13
2023-05-21T01:21:37.903Z,18.32
2023-05-21T01:24:08.138Z,18.36
2023-05-21T01:26:38.732Z,17.81
2023-05-21T01:29:06.573Z,18.29
2023-05-21T01:32:05.721Z,18.42
2023-05-21T01:34:56.240Z,18.15
2023-05-21T01:37:35.376Z,18.39
2023-05-21T01:40:16.350Z,18.28
2023-05-21T01:42:44.743Z,17.95
2023-05-21T01:45:12.458Z,18.25
2023-05-21T01:47:39.709Z,18.30
2023-05-21T01:50:07.024Z,17.85
2023-05-21T01:52:33.656Z,18.05
2023-05-21T01:55:00.342Z,17.98
2023-05-21T01:57:26.933Z,17.95
2023-05-21T01:59:53.458Z,17.96
2023-05-21T02:02:20.108Z,17.99
2023-05-21T02:04:46.669Z,17.87
2023-05-21T02:07:15.078Z,17.82
2023-05-21T02:09:41.655Z,17.48
2023-05-21T02:12:08.279Z,17.81
2023-05-21T02:14:34.965Z,17.70
2023-05-21T02:17:01.474Z,17.73
2023-05-21T02:19:28.042Z,17.81
2023-05-21T02:21:54.567Z,17.60
2023-05-21T02:24:22.253Z,17.60
2023-05-21T02:26:50.409Z,17.57
2023-05-21T02:29:17.120Z,17.28
2023-05-21T02:31:43.610Z,16.68
2023-05-21T02:34:10.145Z,16.32
2023-05-21T02:36:36.688Z,17.03
2023-05-21T02:39:03.410Z,17.33
2023-05-21T02:41:29.901Z,17.17
2023-05-21T02:43:56.373Z,17.29
2023-05-21T02:46:22.964Z,16.89
2023-05-21T02:48:49.502Z,17.09
2023-05-21T02:51:16.213Z,17.24
2023-05-21T02:53:42.842Z,17.13
2023-05-21T02:56:09.455Z,17.05
2023-05-21T02:58:35.981Z,17.37
2023-05-21T03:01:02.512Z,16.99
2023-05-21T03:03:29.146Z,17.36
2023-05-21T03:05:55.663Z,17.05
2023-05-21T03:08:22.191Z,17.38
2023-05-21T03:10:48.956Z,17.14
2023-05-21T03:13:15.606Z,17.44
2023-05-21T03:15:43.899Z,17.02
2023-05-21T03:18:11.835Z,17.12
2023-05-21T03:20:43.657Z,17.38
2023-05-21T03:23:14.240Z,17.47
2023-05-21T03:25:42.871Z,17.22
2023-05-21T03:28:10.130Z,16.96
2023-05-21T03:30:39.589Z,17.23
2023-05-21T03:33:06.549Z,17.16
2023-05-21T03:35:33.245Z,16.83
2023-05-21T03:37:59.912Z,16.55
2023-05-21T03:40:26.428Z,17.13
2023-05-21T03:42:52.919Z,16.84
2023-05-21T03:45:19.536Z,16.81
2023-05-21T03:47:46.213Z,16.88
2023-05-21T03:50:12.803Z,16.67
2023-05-21T03:52:39.319Z,17.06
2023-05-21T03:55:06.675Z,17.16
2023-05-21T03:57:33.213Z,17.02
2023-05-21T03:59:59.869Z,17.39
2023-05-21T04:02:27.519Z,17.20
2023-05-21T04:04:55.849Z,17.23
2023-05-21T04:07:22.648Z,17.14
2023-05-21T04:09:49.317Z,17.21
2023-05-21T04:12:17.959Z,17.37
2023-05-21T04:14:44.407Z,17.09
2023-05-21T04:17:12.698Z,17.07
2023-05-21T04:19:39.294Z,17.24
2023-05-21T04:22:05.986Z,17.02
2023-05-21T04:24:32.552Z,17.82
2023-05-21T04:27:01.566Z,17.93
2023-05-21T04:29:29.889Z,17.97
2023-05-21T04:31:56.556Z,18.05
2023-05-21T04:34:24.344Z,17.95
2023-05-21T04:36:52.008Z,17.84
2023-05-21T04:39:18.518Z,17.45
2023-05-21T04:41:45.195Z,17.59
2023-05-21T04:44:14.700Z,17.90
2023-05-21T04:46:41.954Z,18.17
2023-05-21T04:49:10.143Z,18.15
2023-05-21T04:51:37.797Z,18.11
2023-05-21T04:54:04.397Z,18.08
2023-05-21T04:56:31.869Z,18.13
2023-05-21T04:58:58.951Z,18.13
2023-05-21T05:01:27.249Z,18.21
2023-05-21T05:03:54.069Z,18.09
2023-05-21T05:06:21.390Z,18.23
2023-05-21T05:08:48.005Z,17.90
2023-05-21T05:11:14.526Z,18.65
2023-05-21T05:13:43.905Z,18.71
2023-05-21T05:16:10.503Z,18.92
2023-05-21T05:18:37.036Z,18.80
2023-05-21T05:21:03.717Z,19.04
2023-05-21T05:23:30.414Z,18.83
2023-05-21T05:25:56.980Z,19.38
2023-05-21T05:28:23.575Z,19.23
2023-05-21T05:30:50.193Z,19.20
2023-05-21T05:33:16.756Z,19.35
2023-05-21T05:35:43.252Z,19.51
2023-05-21T05:38:10.498Z,19.61
2023-05-21T05:40:36.995Z,19.39
2023-05-21T05:43:03.661Z,19.19
2023-05-21T05:45:30.239Z,19.10
2023-05-21T05:47:56.850Z,19.42
2023-05-21T05:50:23.408Z,19.33
2023-05-21T05:52:50.064Z,19.38
2023-05-21T05:55:16.748Z,19.80
2023-05-21T05:57:44.976Z,19.15
2023-05-21T06:00:12.404Z,19.20
2023-05-21T06:02:38.945Z,19.40
2023-05-21T06:05:06.953Z,18.82
2023-05-21T06:07:33.750Z,19.03
2023-05-21T06:10:00.215Z,19.37
2023-05-21T06:12:26.730Z,19.41
2023-05-21T06:14:53.261Z,18.66
2023-05-21T06:17:19.737Z,19.71
2023-05-21T06:19:46.328Z,19.48
2023-05-21T06:22:12.914Z,19.69
2023-05-21T06:24:39.443Z,19.67
2023-05-21T06:27:06.255Z,20.18
2023-05-21T06:29:32.798Z,20.31
2023-05-21T06:31:59.289Z,19.94
2023-05-21T06:34:26.044Z,20.06
2023-05-21T06:36:52.816Z,20.12
2023-05-21T06:39:19.457Z,19.90
2023-05-21T06:41:46.066Z,19.55
2023-05-21T06:44:12.532Z,19.71
2023-05-21T06:46:39.073Z,19.90
2023-05-21T06:49:07.057Z,20.48
2023-05-21T06:51:34.057Z,20.36
2023-05-21T06:54:00.764Z,20.49
2023-05-21T06:56:27.383Z,20.69
2023-05-21T06:58:54.494Z,20.27
2023-05-21T07:01:22.417Z,20.23
2023-05-21T07:03:49.390Z,20.39
2023-05-21T07:06:17.003Z,20.00
2023-05-21T07:08:43.577Z,20.18
2023-05-21T07:11:10.335Z,20.84
2023-05-21T07:13:37.104Z,21.24
2023-05-21T07:16:03.734Z,21.07
2023-05-21T07:18:31.218Z,21.07
2023-05-21T07:20:57.779Z,20.92
2023-05-21T07:23:24.557Z,21.63
2023-05-21T07:25:51.325Z,22.18
2023-05-21T07:28:17.960Z,21.68
2023-05-21T07:30:44.522Z,22.12
2023-05-21T07:33:12.588Z,22.19
2023-05-21T07:35:39.347Z,22.80
2023-05-21T07:38:06.205Z,22.60
2023-05-21T07:40:32.773Z,22.88
2023-05-21T07:42:59.282Z,22.39
2023-05-21T07:45:25.897Z,21.57
2023-05-21T07:47:52.575Z,20.95
2023-05-21T07:50:19.204Z,21.21
2023-05-21T07:52:45.983Z,22.05
2023-05-21T07:55:12.578Z,22.04
2023-05-21T07:57:39.121Z,22.68
2023-05-21T08:00:09.565Z,22.41
2023-05-21T08:02:36.356Z,22.15
2023-05-21T08:05:03.088Z,21.93
2023-05-21T08:07:29.701Z,22.55
2023-05-21T08:09:56.478Z,22.97
2023-05-21T08:12:23.017Z,23.59
2023-05-21T08:14:49.698Z,23.75
2023-05-21T08:17:16.582Z,23.84
2023-05-21T08:19:43.218Z,23.45
2023-05-21T08:22:10.132Z,23.97
2023-05-21T08:24:36.801Z,23.88
2023-05-21T08:27:03.429Z,23.94
2023-05-21T08:29:30.041Z,24.17
2023-05-21T08:31:56.600Z,25.11
2023-05-21T08:34:23.291Z,25.31
2023-05-21T08:36:50.007Z,26.64
2023-05-21T08:39:16.662Z,26.87
2023-05-21T08:41:49.396Z,26.89
2023-05-21T08:44:20.432Z,26.58
2023-05-21T08:46:49.933Z,27.36
2023-05-21T08:49:17.540Z,28.06
2023-05-21T08:51:45.686Z,28.74
2023-05-21T08:54:13.957Z,28.81
2023-05-21T08:56:45.667Z,28.97
2023-05-21T08:59:12.755Z,28.46
2023-05-21T09:01:42.277Z,29.35
2023-05-21T09:04:20.266Z,28.30
2023-05-21T09:06:48.387Z,29.82
2023-05-21T09:09:24.879Z,29.84
2023-05-21T09:11:51.464Z,30.50
2023-05-21T09:14:18.902Z,31.74
2023-05-21T09:16:48.420Z,32.14
2023-05-21T09:19:15.086Z,33.04
2023-05-21T09:21:41.781Z,33.05
2023-05-21T09:24:09.646Z,33.17
2023-05-21T09:26:36.292Z,33.85
2023-05-21T09:29:02.838Z,33.56
2023-05-21T09:31:29.607Z,32.90
2023-05-21T09:33:56.200Z,32.57
2023-05-21T09:36:22.943Z,31.39
2023-05-21T09:38:51.823Z,31.56
2023-05-21T09:41:21.888Z,32.21
2023-05-21T09:43:48.828Z,31.99
2023-05-21T09:46:15.511Z,31.41
2023-05-21T09:48:43.595Z,31.72
2023-05-21T09:51:14.646Z,31.54
2023-05-21T09:54:01.108Z,30.86
2023-05-21T09:56:32.326Z,33.29
2023-05-21T09:59:01.972Z,34.98
2023-05-21T10:01:31.089Z,35.62
2023-05-21T10:03:59.390Z,36.96
2023-05-21T10:06:30.085Z,37.15
2023-05-21T10:08:58.099Z,37.63
2023-05-21T10:11:31.015Z,36.85
2023-05-21T10:13:58.165Z,36.75
2023-05-21T10:16:24.891Z,38.51
2023-05-21T10:18:54.150Z,38.71
2023-05-21T10:21:24.050Z,36.95
2023-05-21T10:23:51.653Z,37.15
2023-05-21T10:26:21.444Z,36.70
2023-05-21T10:28:50.080Z,36.40
2023-05-21T10:31:16.904Z,34.09
2023-05-21T10:33:43.602Z,34.37
2023-05-21T10:36:10.351Z,34.64
2023-05-21T10:38:37.618Z,32.28
2023-05-21T10:41:07.458Z,31.28
2023-05-21T10:44:21.827Z,30.51
2023-05-21T10:47:22.400Z,30.42
2023-05-21T10:49:59.407Z,30.11
2023-05-21T10:52:38.039Z,29.62
2023-05-21T10:55:29.667Z,27.52
2023-05-21T10:58:18.294Z,28.31
2023-05-21T11:00:45.159Z,28.75
2023-05-21T11:03:13.193Z,28.22
2023-05-21T11:05:43.807Z,29.57
2023-05-21T11:08:23.545Z,30.40
2023-05-21T11:11:00.288Z,30.11
2023-05-21T11:13:27.552Z,29.67
2023-05-21T11:16:05.210Z,29.30
2023-05-21T11:18:37.892Z,30.69
2023-05-21T11:21:15.331Z,30.72
2023-05-21T11:23:53.742Z,29.48
2023-05-21T11:26:22.501Z,29.51
2023-05-21T11:29:08.569Z,28.34
2023-05-21T11:31:39.279Z,29.66
2023-05-21T11:34:09.119Z,29.81
2023-05-21T11:36:37.925Z,29.58
2023-05-21T11:39:11.976Z,29.81
2023-05-21T11:42:04.164Z,29.52
2023-05-21T11:44:41.851Z,29.81
2023-05-21T11:47:10.063Z,29.44
2023-05-21T11:49:37.200Z,29.66
2023-05-21T11:52:05.516Z,29.26
2023-05-21T11:54:36.779Z,29.56
2023-05-21T11:57:06.880Z,28.32
2023-05-21T11:59:34.407Z,28.78
2023-05-21T12:02:02.020Z,30.05
2023-05-21T12:04:38.615Z,30.00
2023-05-21T12:07:10.226Z,30.36
2023-05-21T12:09:44.409Z,30.67
2023-05-21T12:12:16.174Z,30.83
2023-05-21T12:15:01.535Z,30.53
2023-05-21T12:17:28.231Z,31.17
2023-05-21T12:19:56.541Z,31.73
2023-05-21T12:22:24.758Z,32.10
2023-05-21T12:24:51.468Z,31.91
2023-05-21T12:27:18.257Z,31.57
2023-05-21T12:29:46.088Z,29.39
2023-05-21T12:32:14.445Z,29.75
2023-05-21T12:34:46.195Z,30.44
2023-05-21T12:37:32.615Z,30.28
2023-05-21T12:40:00.671Z,31.22
2023-05-21T12:42:32.392Z,30.04
2023-05-21T12:44:59.066Z,30.93
2023-05-21T12:47:26.878Z,31.04
2023-05-21T12:50:04.101Z,31.01
2023-05-21T12:52:31.068Z,30.45
2023-05-21T12:54:58.052Z,30.52
2023-05-21T12:57:26.207Z,30.08
2023-05-21T12:59:57.728Z,31.02
2023-05-21T13:02:26.046Z,31.06
2023-05-21T13:05:00.683Z,30.56
2023-05-21T13:07:31.175Z,30.45
2023-05-21T13:09:59.099Z,30.97
2023-05-21T13:12:27.543Z,30.59
2023-05-21T13:14:55.481Z,31.09
2023-05-21T13:17:22.605Z,30.15
2023-05-21T13:20:15.605Z,29.57
2023-05-21T13:22:46.572Z,30.08
2023-05-21T13:25:21.810Z,29.61
2023-05-21T13:27:49.474Z,30.30
2023-05-21T13:30:16.069Z,30.08
2023-05-21T13:32:43.432Z,29.62
2023-05-21T13:35:11.325Z,30.21
2023-05-21T13:37:39.990Z,30.21
2023-05-21T13:40:11.510Z,29.58
2023-05-21T13:42:40.825Z,30.22
2023-05-21T13:45:09.037Z,29.96
2023-05-21T13:47:39.183Z,31.18
2023-05-21T13:50:07.473Z,31.41
2023-05-21T13:52:34.162Z,31.13
2023-05-21T13:55:00.989Z,31.12
2023-05-21T13:57:30.621Z,31.35
2023-05-21T13:59:58.147Z,30.98
2023-05-21T14:02:24.841Z,29.59
2023-05-21T14:04:51.764Z,29.05
2023-05-21T14:07:18.401Z,29.84
2023-05-21T14:09:47.547Z,29.30
2023-05-21T14:12:14.308Z,29.30
2023-05-21T14:14:41.413Z,29.83
2023-05-21T14:17:07.959Z,29.44
2023-05-21T14:19:34.612Z,29.94
2023-05-21T14:22:01.201Z,29.72
2023-05-21T14:24:27.732Z,29.78
2023-05-21T14:26:54.489Z,29.49
2023-05-21T14:29:21.020Z,29.91
2023-05-21T14:31:47.558Z,30.64
2023-05-21T14:34:14.203Z,30.25
2023-05-21T14:36:40.942Z,30.25
2023-05-21T14:39:45.011Z,30.05
2023-05-21T14:42:52.855Z,29.96
2023-05-21T14:46:00.092Z,30.57
2023-05-21T14:49:07.396Z,30.89
2023-05-21T14:52:14.594Z,29.70
2023-05-21T14:55:22.388Z,29.75
2023-05-21T14:57:48.885Z,30.69
2023-05-21T15:00:16.078Z,31.00
2023-05-21T15:02:42.731Z,30.26
2023-05-21T15:05:09.674Z,30.44
2023-05-21T15:07:36.485Z,29.81
2023-05-21T15:10:03.090Z,29.43
2023-05-21T15:12:30.130Z,29.22
2023-05-21T15:14:56.818Z,28.46
2023-05-21T15:17:23.846Z,28.19
2023-05-21T15:19:50.414Z,28.69
2023-05-21T15:22:21.153Z,28.73
2023-05-21T15:24:52.329Z,28.58
2023-05-21T15:27:19.193Z,29.27
2023-05-21T15:29:45.943Z,28.71
2023-05-21T15:32:12.481Z,28.95
2023-05-21T15:34:39.093Z,28.97
2023-05-21T15:37:05.752Z,28.95
2023-05-21T15:39:32.271Z,28.63
2023-05-21T15:42:00.701Z,28.77
2023-05-21T15:44:27.246Z,28.94
2023-05-21T15:46:54.787Z,29.19
2023-05-21T15:49:21.339Z,29.25
2023-05-21T15:51:48.609Z,29.38
2023-05-21T15:54:15.182Z,29.60
2023-05-21T15:56:43.489Z,29.78
2023-05-21T15:59:10.038Z,30.28
2023-05-21T16:01:36.699Z,30.03
2023-05-21T16:04:04.853Z,29.84
2023-05-21T16:06:31.593Z,30.38
2023-05-21T16:08:58.938Z,30.16
2023-05-21T16:11:26.336Z,29.82
2023-05-21T16:13:53.778Z,29.29
2023-05-21T16:16:23.840Z,29.44
2023-05-21T16:18:51.391Z,28.41
2023-05-21T16:21:18.074Z,28.76
2023-05-21T16:23:44.687Z,28.53
2023-05-21T16:26:11.574Z,28.65
2023-05-21T16:28:38.116Z,28.85
2023-05-21T16:31:06.119Z,27.94
2023-05-21T16:33:32.971Z,27.92
2023-05-21T16:35:59.502Z,28.33
2023-05-21T16:38:26.006Z,28.13
2023-05-21T16:40:52.625Z,27.67
2023-05-21T16:43:19.215Z,28.12
2023-05-21T16:45:46.786Z,28.08
2023-05-21T16:48:13.603Z,28.34
2023-05-21T16:50:40.776Z,28.68
2023-05-21T16:53:09.677Z,28.66
2023-05-21T16:55:37.633Z,28.44
2023-05-21T16:58:05.551Z,28.68
2023-05-21T17:00:32.608Z,28.47
2023-05-21T17:02:59.233Z,28.35
2023-05-21T17:05:26.415Z,28.28
2023-05-21T17:07:52.981Z,28.67
2023-05-21T17:10:19.734Z,28.33
2023-05-21T17:12:46.290Z,28.45
2023-05-21T17:15:12.854Z,27.75
2023-05-21T17:17:39.473Z,27.50
2023-05-21T17:20:06.992Z,27.69
2023-05-21T17:22:33.527Z,27.67
2023-05-21T17:25:00.041Z,27.71
2023-05-21T17:27:26.574Z,27.95
2023-05-21T17:29:53.119Z,27.60
2023-05-21T17:32:22.600Z,27.47
2023-05-21T17:34:49.164Z,27.60
2023-05-21T17:37:16.216Z,27.61
2023-05-21T17:39:42.789Z,27.37
2023-05-21T17:42:09.271Z,27.28
2023-05-21T17:44:35.808Z,27.66
2023-05-21T17:47:02.349Z,27.56
2023-05-21T17:49:29.040Z,27.57
2023-05-21T17:51:55.819Z,27.14
2023-05-21T17:54:22.344Z,27.44
2023-05-21T17:56:48.972Z,27.34
2023-05-21T17:59:16.609Z,27.63
2023-05-21T18:01:43.188Z,27.65
2023-05-21T18:04:12.047Z,28.02
2023-05-21T18:06:39.596Z,28.04
2023-05-21T18:09:14.359Z,28.00
2023-05-21T18:11:43.317Z,27.89
2023-05-21T18:14:09.880Z,28.27
2023-05-21T18:16:36.474Z,28.29
2023-05-21T18:19:05.876Z,28.39
2023-05-21T18:21:34.422Z,28.30
2023-05-21T18:24:02.092Z,28.36
2023-05-21T18:26:30.232Z,27.92
2023-05-21T18:28:57.950Z,27.81
2023-05-21T18:31:25.170Z,27.79
2023-05-21T18:33:52.066Z,28.05
2023-05-21T18:36:18.771Z,28.13
2023-05-21T18:38:45.345Z,28.19
2023-05-21T18:41:11.917Z,27.91
2023-05-21T18:43:38.486Z,27.84
2023-05-21T18:46:05.250Z,27.84
2023-05-21T18:48:32.980Z,28.03
2023-05-21T18:51:01.511Z,27.71
2023-05-21T18:53:28.133Z,27.94
2023-05-21T18:55:54.808Z,27.61
2023-05-21T18:58:21.345Z,27.57
2023-05-21T19:00:47.836Z,27.60
2023-05-21T19:03:14.365Z,27.52
2023-05-21T19:05:41.055Z,26.29
2023-05-21T19:08:07.561Z,25.02
2023-05-21T19:10:34.168Z,24.84
2023-05-21T19:13:00.895Z,25.21
2023-05-21T19:15:27.405Z,24.76
2023-05-21T19:17:54.307Z,24.03
2023-05-21T19:20:24.313Z,23.65
2023-05-21T19:22:50.990Z,23.74
2023-05-21T19:25:17.504Z,23.50
2023-05-21T19:27:44.407Z,23.52
2023-05-21T19:30:11.294Z,24.22
2023-05-21T19:32:37.785Z,24.06
2023-05-21T19:35:05.564Z,24.60
2023-05-21T19:37:32.049Z,24.62
2023-05-21T19:39:58.576Z,24.55
2023-05-21T19:42:25.097Z,24.57
2023-05-21T19:44:51.753Z,25.05
2023-05-21T19:47:18.353Z,24.50
2023-05-21T19:49:45.167Z,24.45
2023-05-21T19:52:12.382Z,24.12
2023-05-21T19:54:39.269Z,23.92
2023-05-21T19:57:06.783Z,24.44
2023-05-21T19:59:33.407Z,23.49
2023-05-21T20:01:59.971Z,23.20
2023-05-21T20:04:27.439Z,22.60
2023-05-21T20:06:53.981Z,22.59
2023-05-21T20:09:20.555Z,22.28
2023-05-21T20:11:49.913Z,22.50
2023-05-21T20:14:16.502Z,22.01
2023-05-21T20:16:47.062Z,22.34
2023-05-21T20:19:15.167Z,22.13
2023-05-21T20:21:41.900Z,21.81
2023-05-21T20:24:08.726Z,21.92
2023-05-21T20:26:36.412Z,21.76
2023-05-21T20:29:03.394Z,21.99
2023-05-21T20:31:30.568Z,21.60
2023-05-21T20:33:57.108Z,21.83
2023-05-21T20:36:23.768Z,21.61
2023-05-21T20:38:50.368Z,21.27
2023-05-21T20:41:16.914Z,21.46
2023-05-21T20:43:45.361Z,20.61
2023-05-21T20:46:11.843Z,20.68
2023-05-21T20:48:38.361Z,19.83
2023-05-21T20:51:04.991Z,20.27
2023-05-21T20:53:31.954Z,20.66
2023-05-21T20:55:58.587Z,20.57
2023-05-21T20:58:25.409Z,20.61
2023-05-21T21:00:51.997Z,20.47
2023-05-21T21:03:18.772Z,20.97
2023-05-21T21:05:45.402Z,20.84
2023-05-21T21:08:12.383Z,20.90
2023-05-21T21:10:41.242Z,20.96
2023-05-21T21:13:08.163Z,20.37
2023-05-21T21:15:35.245Z,19.99
2023-05-21T21:18:01.805Z,19.74
2023-05-21T21:20:28.596Z,19.82
2023-05-21T21:22:55.382Z,20.41
2023-05-21T21:25:36.723Z,20.09
2023-05-21T21:28:04.364Z,20.58
2023-05-21T21:30:31.082Z,20.83
2023-05-21T21:32:57.617Z,20.94
2023-05-21T21:35:24.524Z,20.79
2023-05-21T21:37:51.447Z,20.96
2023-05-21T21:40:21.200Z,21.22
2023-05-21T21:42:47.733Z,21.00
2023-05-21T21:45:14.206Z,21.21
2023-05-21T21:47:41.101Z,21.35
2023-05-21T21:50:08.040Z,21.19
2023-05-21T21:52:34.706Z,20.84
2023-05-21T21:55:01.206Z,21.02
2023-05-21T21:57:29.407Z,21.03
2023-05-21T21:59:58.842Z,21.00
2023-05-21T22:02:25.776Z,20.73
2023-05-21T22:04:52.323Z,21.29
2023-05-21T22:07:20.706Z,20.92
2023-05-21T22:09:47.230Z,20.37
2023-05-21T22:12:13.765Z,21.41
2023-05-21T22:14:40.267Z,21.37
2023-05-21T22:17:08.530Z,21.19
2023-05-21T22:19:35.874Z,20.97
2023-05-21T22:22:03.989Z,21.16
2023-05-21T22:24:32.768Z,21.22
2023-05-21T22:27:02.575Z,21.01
2023-05-21T22:29:29.467Z,21.00
2023-05-21T22:31:56.107Z,21.01
2023-05-21T22:34:25.260Z,20.50
2023-05-21T22:36:51.897Z,20.02
2023-05-21T22:39:18.530Z,20.58
2023-05-21T22:41:45.576Z,20.05
2023-05-21T22:44:12.084Z,20.67
2023-05-21T22:46:38.922Z,20.67
2023-05-21T22:49:06.251Z,20.56
2023-05-21T22:51:34.432Z,20.65
2023-05-21T22:54:04.828Z,20.77
2023-05-21T22:56:31.335Z,21.03
2023-05-21T22:58:58.290Z,20.92
2023-05-21T23:01:24.958Z,21.34
2023-05-21T23:03:51.868Z,21.31
2023-05-21T23:06:18.613Z,21.07
2023-05-21T23:08:45.283Z,21.27
2023-05-21T23:11:11.859Z,21.31
2023-05-21T23:13:38.401Z,21.44
2023-05-21T23:16:05.873Z,21.52
2023-05-21T23:18:32.980Z,21.37
2023-05-21T23:21:01.010Z,21.19
2023-05-21T23:23:27.700Z,21.97
2023-05-21T23:25:58.903Z,21.70
2023-05-21T23:28:25.932Z,21.72
2023-05-21T23:30:52.712Z,21.82
2023-05-21T23:33:19.378Z,21.79
2023-05-21T23:35:45.956Z,21.69
2023-05-21T23:38:12.501Z,21.93
2023-05-21T23:40:39.591Z,21.80
2023-05-21T23:43:06.367Z,21.79
2023-05-21T23:45:33.047Z,21.72
2023-05-21T23:47:59.648Z,21.63
2023-05-21T23:50:26.215Z,21.69
2023-05-21T23:52:52.781Z,22.04
2023-05-21T23:55:19.320Z,22.00
2023-05-21T23:57:45.848Z,21.68
